Time;durP1;ratioP1;P1;durP2;ratioP2;P2;SDS_P1;SDS_P2;PMS_P1;PMS_P2;Temp;Humidity;BMP_temperature;BMP_pressure;BME280_temperature;BME280_humidity;BME280_pressure;Samples;Min_cycle;Max_cycle;Signal;HPM_P1;HPM_P2
2023/08/30 00:07:10;;;;;;;16.1;7.9;;;;;;;19.25;88.42;;;;;
2023/08/30 00:18:10;;;;;;;16.1;7.9;;;;;;;19.18;88.6;;;;;
2023/08/30 00:28:10;;;;;;;10.6;7.6;;;;;;;19.05;88.72;;;;;
2023/08/30 00:38:10;;;;;;;10.6;7.6;;;;;;;19.14;88.8;;;;;
2023/08/30 00:48:10;;;;;;;10.6;7.6;;;;;;;19.09;88.45;;;;;
2023/08/30 00:59:10;;;;;;;10.9;7.3;;;;;;;18.96;88.49;;;;;
2023/08/30 01:09:10;;;;;;;10.9;7.3;;;;;;;18.92;88.92;;;;;
2023/08/30 01:19:10;;;;;;;10.9;7.3;;;;;;;19.03;89.11;;;;;
2023/08/30 01:30:10;;;;;;;8.8;5.9;;;;;;;19.05;89.05;;;;;
2023/08/30 01:40:10;;;;;;;8.8;5.9;;;;;;;19.27;88.57;;;;;
2023/08/30 01:51:10;;;;;;;10.7;7;;;;;;;19.28;88.69;;;;;
2023/08/30 02:02:10;;;;;;;10.7;7;;;;;;;19.38;88.55;;;;;
2023/08/30 02:13:11;;;;;;;10.7;7;;;;;;;19.37;88.11;;;;;
2023/08/30 02:23:10;;;;;;;10.5;7.9;;;;;;;19.36;88.11;;;;;
2023/08/30 02:34:10;;;;;;;10.5;7.9;;;;;;;19.35;88;;;;;
2023/08/30 02:44:10;;;;;;;10.5;7.9;;;;;;;19.41;88.04;;;;;
2023/08/30 02:55:10;;;;;;;10.7;6.9;;;;;;;19.36;88.22;;;;;
2023/08/30 03:05:11;;;;;;;10.7;6.9;;;;;;;19.25;88.8;;;;;
2023/08/30 03:16:11;;;;;;;10.7;6.9;;;;;;;19.19;88.94;;;;;
2023/08/30 03:26:10;;;;;;;9.7;6.9;;;;;;;19.08;88.98;;;;;
2023/08/30 03:36:10;;;;;;;9.7;6.9;;;;;;;19.09;89.5;;;;;
2023/08/30 03:46:12;;;;;;;9.7;6.9;;;;;;;18.99;89.66;;;;;
2023/08/30 03:57:12;;;;;;;14.9;10.9;;;;;;;18.98;89.13;;;;;
2023/08/30 04:07:12;;;;;;;14.9;10.9;;;;;;;18.89;89.58;;;;;
2023/08/30 04:18:12;;;;;;;14.9;10.9;;;;;;;18.82;89.07;;;;;
2023/08/30 04:28:12;;;;;;;15.7;12.1;;;;;;;18.72;89.62;;;;;
2023/08/30 04:39:13;;;;;;;15.7;12.1;;;;;;;18.86;89.61;;;;;
2023/08/30 04:50:12;;;;;;;18.6;12.4;;;;;;;18.75;89.26;;;;;
2023/08/30 05:00:12;;;;;;;18.6;12.4;;;;;;;18.86;88.93;;;;;
2023/08/30 05:11:12;;;;;;;18.6;12.4;;;;;;;18.79;88.76;;;;;
2023/08/30 05:22:12;;;;;;;18;14;;;;;;;18.79;88.73;;;;;
2023/08/30 05:33:12;;;;;;;18;14;;;;;;;18.85;88.49;;;;;
2023/08/30 05:44:12;;;;;;;18;14;;;;;;;18.97;88.08;;;;;
2023/08/30 05:54:12;;;;;;;20.4;14.1;;;;;;;18.89;88.02;;;;;
2023/08/30 06:05:12;;;;;;;20.4;14.1;;;;;;;18.72;87.78;;;;;
2023/08/30 06:16:12;;;;;;;20.4;14.1;;;;;;;18.72;88.34;;;;;
2023/08/30 06:26:12;;;;;;;20.5;14.1;;;;;;;18.64;88.9;;;;;
2023/08/30 06:36:14;;;;;;;20.5;14.1;;;;;;;18.77;88.45;;;;;
2023/08/30 06:46:12;;;;;;;20.5;14.1;;;;;;;18.66;88.73;;;;;
2023/08/30 06:57:12;;;;;;;20.7;14.8;;;;;;;18.78;88.63;;;;;
2023/08/30 07:07:12;;;;;;;20.7;14.8;;;;;;;18.8;88.38;;;;;
2023/08/30 07:18:12;;;;;;;20.7;14.8;;;;;;;18.87;87.59;;;;;
2023/08/30 07:29:12;;;;;;;17.4;12.3;;;;;;;18.56;87.8;;;;;
2023/08/30 07:39:12;;;;;;;17.4;12.3;;;;;;;18.47;87.75;;;;;
2023/08/30 07:50:12;;;;;;;9.9;6.8;;;;;;;18.87;86.99;;;;;
2023/08/30 08:00:12;;;;;;;9.9;6.8;;;;;;;19.1;85.98;;;;;
2023/08/30 08:11:12;;;;;;;9.9;6.8;;;;;;;19.56;84.62;;;;;
2023/08/30 08:22:13;;;;;;;13.2;7.5;;;;;;;19.89;82.33;;;;;
2023/08/30 08:33:12;;;;;;;13.2;7.5;;;;;;;19.78;82.9;;;;;
2023/08/30 08:43:12;;;;;;;13.2;7.5;;;;;;;20.27;81.72;;;;;
2023/08/30 08:54:12;;;;;;;12.4;8.3;;;;;;;20.49;80.77;;;;;
2023/08/30 09:05:12;;;;;;;12.4;8.3;;;;;;;20.64;80.58;;;;;
2023/08/30 09:15:12;;;;;;;12.4;8.3;;;;;;;20.91;79.77;;;;;
2023/08/30 09:25:12;;;;;;;12.6;8.1;;;;;;;20.78;78.11;;;;;
2023/08/30 09:36:13;;;;;;;12.6;8.1;;;;;;;20.84;77.81;;;;;
2023/08/30 09:47:12;;;;;;;12.6;8.1;;;;;;;20.51;78.89;;;;;
2023/08/30 09:57:13;;;;;;;11.9;9;;;;;;;20.35;78.87;;;;;
2023/08/30 10:07:13;;;;;;;11.9;9;;;;;;;20.44;79.08;;;;;
2023/08/30 10:17:12;;;;;;;11.9;9;;;;;;;20.1;80.06;;;;;
2023/08/30 10:28:13;;;;;;;12.9;9.1;;;;;;;19.92;79.85;;;;;
2023/08/30 10:39:12;;;;;;;12.9;9.1;;;;;;;20.21;80.07;;;;;
2023/08/30 10:50:12;;;;;;;12.9;7.9;;;;;;;20.42;78.49;;;;;
2023/08/30 11:00:13;;;;;;;12.9;7.9;;;;;;;20.66;77.69;;;;;
2023/08/30 11:11:14;;;;;;;12.9;7.9;;;;;;;21.05;77.05;;;;;
2023/08/30 11:21:13;;;;;;;10.6;7.1;;;;;;;20.77;77.38;;;;;
2023/08/30 11:32:13;;;;;;;10.6;7.1;;;;;;;20.33;78.5;;;;;
2023/08/30 11:43:12;;;;;;;10.6;7.1;;;;;;;20.04;79.9;;;;;
2023/08/30 11:54:12;;;;;;;11.7;8.8;;;;;;;19.9;81.01;;;;;
2023/08/30 12:04:13;;;;;;;11.7;8.8;;;;;;;19.71;81.88;;;;;
2023/08/30 12:14:13;;;;;;;11.7;8.8;;;;;;;19.3;82.69;;;;;
2023/08/30 12:25:12;;;;;;;16.1;10.2;;;;;;;18.98;83.55;;;;;
2023/08/30 12:36:12;;;;;;;16.1;10.2;;;;;;;18.55;85.47;;;;;
2023/08/30 12:47:14;;;;;;;16.1;10.2;;;;;;;18.78;85.26;;;;;
2023/08/30 12:57:13;;;;;;;16.9;13.1;;;;;;;18.67;85.39;;;;;
2023/08/30 13:08:13;;;;;;;16.9;13.1;;;;;;;19.5;84.13;;;;;
2023/08/30 13:19:13;;;;;;;16.9;13.1;;;;;;;20.38;81.35;;;;;
2023/08/30 13:29:13;;;;;;;20.9;16.1;;;;;;;20.19;81.07;;;;;
2023/08/30 13:40:13;;;;;;;20.9;16.1;;;;;;;19.68;81.27;;;;;
2023/08/30 13:50:13;;;;;;;18.5;14;;;;;;;19.6;82.07;;;;;
2023/08/30 14:01:13;;;;;;;18.5;14;;;;;;;20.08;80.78;;;;;
2023/08/30 14:12:13;;;;;;;18.5;14;;;;;;;20.14;81.12;;;;;
2023/08/30 14:23:13;;;;;;;13.8;10.4;;;;;;;20.15;79.84;;;;;
2023/08/30 14:33:13;;;;;;;13.8;10.4;;;;;;;20.39;79.54;;;;;
2023/08/30 14:43:13;;;;;;;;;;;;;;;;;;;;;
2023/08/30 14:54:13;;;;;;;12.4;8;;;;;;;20.15;79.1;;;;;
2023/08/30 15:04:13;;;;;;;12.4;8;;;;;;;19.78;79.85;;;;;
2023/08/30 15:15:13;;;;;;;12.4;8;;;;;;;19.68;80.38;;;;;
2023/08/30 15:25:13;;;;;;;13;8.9;;;;;;;19.45;80.17;;;;;
2023/08/30 15:36:13;;;;;;;13;8.9;;;;;;;19.26;81.28;;;;;
2023/08/30 15:46:13;;;;;;;13;8.9;;;;;;;18.53;83.47;;;;;
2023/08/30 15:56:13;;;;;;;11.7;9.4;;;;;;;18.37;84.25;;;;;
2023/08/30 16:07:13;;;;;;;11.7;9.4;;;;;;;18.06;86.41;;;;;
2023/08/30 16:17:13;;;;;;;11.7;9.4;;;;;;;17.76;87.04;;;;;
2023/08/30 16:27:13;;;;;;;12.7;9.7;;;;;;;17.89;86.81;;;;;
2023/08/30 16:38:13;;;;;;;12.7;9.7;;;;;;;17.53;87.51;;;;;
2023/08/30 16:48:13;;;;;;;12.7;9.7;;;;;;;17.37;88.21;;;;;
2023/08/30 16:58:13;;;;;;;10.9;7.9;;;;;;;17.45;87.96;;;;;
2023/08/30 17:09:13;;;;;;;10.9;7.9;;;;;;;17.34;87.76;;;;;
2023/08/30 17:20:13;;;;;;;9.7;7.3;;;;;;;17.24;88.07;;;;;
2023/08/30 17:30:13;;;;;;;9.7;7.3;;;;;;;17.17;88.57;;;;;
2023/08/30 17:41:13;;;;;;;9.7;7.3;;;;;;;17.05;88.91;;;;;
2023/08/30 17:52:13;;;;;;;14.8;9.8;;;;;;;17.21;88.89;;;;;
2023/08/30 18:03:13;;;;;;;14.8;9.8;;;;;;;17.01;89.24;;;;;
2023/08/30 18:13:13;;;;;;;14.8;9.8;;;;;;;16.82;89.45;;;;;
2023/08/30 18:24:13;;;;;;;16.7;12.2;;;;;;;16.79;89.63;;;;;
2023/08/30 18:34:13;;;;;;;16.7;12.2;;;;;;;16.69;89.99;;;;;
2023/08/30 18:44:13;;;;;;;16.7;12.2;;;;;;;16.68;90.1;;;;;
2023/08/30 18:55:13;;;;;;;13.3;10.2;;;;;;;16.59;89.96;;;;;
2023/08/30 19:05:13;;;;;;;13.3;10.2;;;;;;;16.51;90.35;;;;;
2023/08/30 19:16:16;;;;;;;13.3;10.2;;;;;;;16.5;90.6;;;;;
2023/08/30 19:26:13;;;;;;;14;10.2;;;;;;;16.44;90.92;;;;;
2023/08/30 19:37:13;;;;;;;14;10.2;;;;;;;16.49;90.81;;;;;
2023/08/30 19:47:13;;;;;;;14;10.2;;;;;;;16.55;90.43;;;;;
2023/08/30 19:58:13;;;;;;;15.9;12.5;;;;;;;16.51;90.17;;;;;
2023/08/30 20:08:13;;;;;;;15.9;12.5;;;;;;;16.56;90.05;;;;;
2023/08/30 20:18:13;;;;;;;15.9;12.5;;;;;;;16.57;89.78;;;;;
2023/08/30 20:28:13;;;;;;;19.9;14.2;;;;;;;16.59;89.68;;;;;
2023/08/30 20:38:13;;;;;;;19.9;14.2;;;;;;;16.56;89.29;;;;;
2023/08/30 20:49:13;;;;;;;19.9;14.2;;;;;;;16.52;88.85;;;;;
2023/08/30 20:59:13;;;;;;;16;11.3;;;;;;;16.47;88.86;;;;;
2023/08/30 21:09:13;;;;;;;16;11.3;;;;;;;16.6;88.95;;;;;
2023/08/30 21:20:13;;;;;;;16.3;12;;;;;;;16.62;88.59;;;;;
2023/08/30 21:30:14;;;;;;;16.3;12;;;;;;;16.61;88.77;;;;;
2023/08/30 21:41:15;;;;;;;16.3;12;;;;;;;16.56;88.79;;;;;
2023/08/30 21:51:13;;;;;;;13.7;10.6;;;;;;;16.58;88.69;;;;;
2023/08/30 22:02:13;;;;;;;13.7;10.6;;;;;;;16.64;88.5;;;;;
2023/08/30 22:12:13;;;;;;;13.7;10.6;;;;;;;16.71;88.26;;;;;
2023/08/30 22:22:13;;;;;;;18.3;13;;;;;;;16.83;88.1;;;;;
2023/08/30 22:33:13;;;;;;;18.3;13;;;;;;;16.58;87.98;;;;;
2023/08/30 22:43:14;;;;;;;18.3;13;;;;;;;16.63;88;;;;;
2023/08/30 22:53:13;;;;;;;17;11.7;;;;;;;16.5;87.64;;;;;
2023/08/30 23:04:13;;;;;;;17;11.7;;;;;;;16.44;87.66;;;;;
2023/08/30 23:15:14;;;;;;;17;11.7;;;;;;;16.29;88.02;;;;;
2023/08/30 23:26:13;;;;;;;15.3;12.9;;;;;;;16.27;88.45;;;;;
2023/08/30 23:37:13;;;;;;;15.3;12.9;;;;;;;16.24;88.41;;;;;
2023/08/30 23:47:13;;;;;;;15.3;12.9;;;;;;;16.24;88.91;;;;;
2023/08/30 23:57:13;;;;;;;18.3;12.8;;;;;;;16.18;88.66;;;;;
